createdAt,value
2022-12-01T00:01:35.540Z,6.10
2022-12-01T00:04:03.902Z,5.90
2022-12-01T00:06:32.197Z,5.60
2022-12-01T00:09:20.336Z,5.70
2022-12-01T00:11:49.149Z,5.90
2022-12-01T00:14:17.760Z,5.40
2022-12-01T00:16:46.012Z,5.80
2022-12-01T00:19:14.282Z,5.40
2022-12-01T00:21:42.135Z,6.00
2022-12-01T00:24:12.257Z,5.80
2022-12-01T00:26:40.642Z,5.60
2022-12-01T00:29:09.535Z,6.10
2022-12-01T00:31:38.155Z,5.80
2022-12-01T00:34:11.127Z,5.70
2022-12-01T00:36:39.802Z,5.20
2022-12-01T00:39:08.579Z,5.50
2022-12-01T00:41:36.509Z,5.30
2022-12-01T00:44:05.407Z,5.50
2022-12-01T00:46:33.486Z,4.80
2022-12-01T00:49:01.994Z,5.10
2022-12-01T00:51:30.914Z,5.10
2022-12-01T00:53:59.263Z,4.70
2022-12-01T00:56:27.543Z,5.00
2022-12-01T00:58:56.145Z,4.70
2022-12-01T01:01:24.352Z,4.60
2022-12-01T01:03:52.321Z,4.50
2022-12-01T01:06:20.240Z,4.30
2022-12-01T01:08:48.290Z,4.40
2022-12-01T01:11:16.380Z,3.90
2022-12-01T01:13:44.306Z,3.80
2022-12-01T01:16:22.491Z,4.10
2022-12-01T01:18:50.489Z,4.10
2022-12-01T01:21:21.397Z,4.10
2022-12-01T01:23:51.449Z,4.00
2022-12-01T01:26:29.694Z,3.60
2022-12-01T01:29:02.632Z,3.90
2022-12-01T01:31:31.993Z,3.60
2022-12-01T01:34:00.824Z,3.90
2022-12-01T01:36:28.948Z,4.20
2022-12-01T01:38:56.922Z,3.90
2022-12-01T01:41:25.418Z,3.90
2022-12-01T01:44:04.398Z,3.80
2022-12-01T01:46:35.327Z,3.70
2022-12-01T01:49:11.730Z,3.80
2022-12-01T01:51:53.199Z,4.00
2022-12-01T01:54:29.287Z,3.90
2022-12-01T01:57:00.213Z,3.60
2022-12-01T01:59:39.423Z,3.60
2022-12-01T02:02:11.003Z,3.60
2022-12-01T02:04:46.092Z,3.60
2022-12-01T02:07:19.397Z,3.70
2022-12-01T02:09:47.671Z,3.60
2022-12-01T02:12:54.593Z,3.60
2022-12-01T02:15:50.824Z,3.40
2022-12-01T02:18:43.269Z,3.40
2022-12-01T02:21:20.553Z,3.80
2022-12-01T02:24:40.420Z,3.30
2022-12-01T02:27:49.473Z,3.30
2022-12-01T02:30:38.553Z,3.50
2022-12-01T02:33:22.926Z,3.70
2022-12-01T02:36:06.014Z,3.30
2022-12-01T02:38:51.722Z,3.30
2022-12-01T02:41:51.319Z,3.30
2022-12-01T02:44:30.449Z,3.50
2022-12-01T02:47:19.740Z,3.60
2022-12-01T02:49:55.463Z,3.20
2022-12-01T02:52:27.027Z,3.30
2022-12-01T02:54:57.146Z,3.50
2022-12-01T02:57:25.103Z,3.40
2022-12-01T02:59:56.048Z,3.30
2022-12-01T03:02:43.492Z,3.20
2022-12-01T03:05:54.347Z,3.80
2022-12-01T03:08:46.204Z,3.50
2022-12-01T03:11:30.016Z,3.20
2022-12-01T03:14:14.390Z,3.50
2022-12-01T03:16:54.320Z,3.10
2022-12-01T03:19:37.651Z,3.40
2022-12-01T03:22:14.341Z,3.50
2022-12-01T03:24:47.906Z,3.20
2022-12-01T03:27:21.174Z,3.30
2022-12-01T03:29:55.973Z,3.30
2022-12-01T03:32:32.464Z,3.20
2022-12-01T03:35:09.219Z,3.10
2022-12-01T03:37:51.819Z,3.00
2022-12-01T03:40:27.307Z,3.20
2022-12-01T03:43:01.775Z,3.10
2022-12-01T03:45:51.305Z,3.30
2022-12-01T03:48:19.811Z,3.40
2022-12-01T03:50:58.445Z,3.00
2022-12-01T03:53:35.429Z,3.00
2022-12-01T03:56:07.411Z,3.20
2022-12-01T03:58:44.381Z,3.30
2022-12-01T04:01:13.266Z,3.00
2022-12-01T04:03:41.238Z,3.30
2022-12-01T04:06:09.075Z,3.10
2022-12-01T04:08:38.207Z,2.90
2022-12-01T04:11:32.210Z,3.20
2022-12-01T04:14:00.824Z,3.10
2022-12-01T04:16:28.821Z,3.10
2022-12-01T04:18:56.902Z,3.60
2022-12-01T04:21:25.072Z,3.50
2022-12-01T04:24:02.473Z,3.20
2022-12-01T04:26:37.371Z,3.20
2022-12-01T04:31:36.659Z,3.30
2022-12-01T04:34:05.405Z,3.10
2022-12-01T04:36:37.188Z,3.10
2022-12-01T04:39:05.654Z,3.20
2022-12-01T04:41:34.828Z,3.30
2022-12-01T04:44:03.116Z,3.30
2022-12-01T04:46:31.219Z,3.00
2022-12-01T04:48:59.454Z,2.80
2022-12-01T04:51:27.438Z,3.20
2022-12-01T04:53:56.939Z,3.00
2022-12-01T04:56:25.085Z,3.20
2022-12-01T04:58:53.306Z,3.10
2022-12-01T05:01:21.407Z,3.10
2022-12-01T05:03:49.783Z,3.00
2022-12-01T05:06:24.605Z,3.10
2022-12-01T05:11:26.971Z,3.40
2022-12-01T05:13:55.326Z,3.20
2022-12-01T05:16:31.938Z,3.10
2022-12-01T05:19:23.945Z,2.90
2022-12-01T05:21:52.731Z,3.10
2022-12-01T05:24:21.874Z,3.10
2022-12-01T05:26:49.903Z,3.20
2022-12-01T05:29:18.194Z,3.00
2022-12-01T05:31:47.051Z,3.00
2022-12-01T05:34:15.322Z,3.00
2022-12-01T05:36:43.326Z,3.00
2022-12-01T05:39:11.200Z,2.90
2022-12-01T05:41:39.254Z,3.20
2022-12-01T05:44:07.309Z,3.10
2022-12-01T05:46:35.261Z,3.30
2022-12-01T05:49:03.570Z,3.40
2022-12-01T05:51:31.673Z,3.10
2022-12-01T05:54:00.637Z,3.20
2022-12-01T05:56:28.709Z,3.70
2022-12-01T05:58:57.393Z,3.60
2022-12-01T06:01:25.466Z,3.60
2022-12-01T06:03:54.487Z,3.70
2022-12-01T06:06:22.736Z,3.60
2022-12-01T06:08:50.909Z,3.80
2022-12-01T06:11:19.096Z,3.60
2022-12-01T06:13:47.469Z,3.70
2022-12-01T06:16:15.355Z,3.80
2022-12-01T06:18:43.604Z,3.40
2022-12-01T06:21:11.551Z,3.60
2022-12-01T06:23:39.528Z,3.90
2022-12-01T06:26:07.411Z,3.60
2022-12-01T06:28:35.411Z,3.30
2022-12-01T06:31:03.968Z,3.80
2022-12-01T06:33:32.780Z,3.70
2022-12-01T06:36:04.363Z,3.60
2022-12-01T06:38:35.469Z,3.70
2022-12-01T06:41:06.223Z,3.50
2022-12-01T06:43:38.060Z,3.70
2022-12-01T06:46:06.967Z,3.70
2022-12-01T06:48:35.625Z,3.30
2022-12-01T06:51:04.105Z,3.80
2022-12-01T06:53:32.778Z,3.50
2022-12-01T06:56:03.274Z,3.40
2022-12-01T06:58:32.018Z,3.40
2022-12-01T07:01:01.069Z,3.40
2022-12-01T07:03:29.028Z,3.70
2022-12-01T07:05:59.919Z,3.80
2022-12-01T07:08:32.817Z,3.50
2022-12-01T07:11:12.597Z,4.00
2022-12-01T07:13:43.088Z,3.70
2022-12-01T07:16:11.663Z,3.80
2022-12-01T07:18:40.699Z,4.20
2022-12-01T07:21:14.042Z,4.00
2022-12-01T07:23:42.640Z,3.80
2022-12-01T07:26:15.175Z,3.80
2022-12-01T07:28:44.860Z,3.70
2022-12-01T07:31:19.994Z,3.70
2022-12-01T07:33:47.932Z,3.60
2022-12-01T07:36:16.267Z,3.80
2022-12-01T07:38:44.469Z,3.80
2022-12-01T07:41:21.525Z,3.70
2022-12-01T07:43:51.798Z,3.70
2022-12-01T07:46:24.177Z,3.70
2022-12-01T07:48:54.865Z,4.10
2022-12-01T07:51:25.130Z,3.60
2022-12-01T07:53:54.828Z,3.80
2022-12-01T07:56:23.636Z,3.80
2022-12-01T07:58:51.880Z,3.70
2022-12-01T08:01:23.094Z,3.80
2022-12-01T08:03:58.022Z,3.70
2022-12-01T08:06:26.886Z,3.90
2022-12-01T08:08:55.488Z,3.70
2022-12-01T08:11:30.180Z,3.90
2022-12-01T08:16:26.618Z,4.00
2022-12-01T08:18:55.098Z,3.80
2022-12-01T08:21:24.289Z,4.00
2022-12-01T08:23:55.476Z,4.00
2022-12-01T08:26:26.168Z,3.90
2022-12-01T08:28:54.342Z,3.70
2022-12-01T08:31:28.175Z,3.50
2022-12-01T08:33:57.350Z,3.80
2022-12-01T08:36:26.340Z,4.00
2022-12-01T08:38:56.093Z,3.90
2022-12-01T08:41:25.353Z,3.50
2022-12-01T08:43:58.259Z,3.60
2022-12-01T08:46:35.302Z,4.20
2022-12-01T08:49:06.157Z,3.70
2022-12-01T08:51:34.536Z,3.60
2022-12-01T08:54:02.710Z,3.90
2022-12-01T08:56:37.049Z,3.80
2022-12-01T09:01:34.929Z,3.80
2022-12-01T09:04:08.485Z,3.80
2022-12-01T09:06:44.046Z,3.60
2022-12-01T09:09:18.006Z,3.70
2022-12-01T09:11:47.886Z,3.70
2022-12-01T09:14:18.246Z,4.20
2022-12-01T09:16:50.068Z,3.50
2022-12-01T09:19:24.541Z,4.00
2022-12-01T09:21:53.485Z,4.10
2022-12-01T09:24:23.384Z,3.70
2022-12-01T09:26:56.708Z,3.80
2022-12-01T09:29:26.097Z,3.70
2022-12-01T09:31:59.414Z,3.80
2022-12-01T09:34:29.313Z,4.10
2022-12-01T09:36:58.725Z,4.00
2022-12-01T09:39:26.679Z,3.80
2022-12-01T09:42:08.502Z,4.20
2022-12-01T09:44:54.347Z,4.10
2022-12-01T09:50:19.746Z,3.70
2022-12-01T09:52:53.993Z,4.00
2022-12-01T09:55:25.770Z,4.10
2022-12-01T09:57:58.303Z,3.80
2022-12-01T10:00:31.720Z,4.20
2022-12-01T10:03:55.521Z,4.10
2022-12-01T10:06:37.145Z,3.90
2022-12-01T10:09:36.243Z,4.10
2022-12-01T10:12:18.628Z,4.00
2022-12-01T10:14:48.905Z,3.80
2022-12-01T10:17:47.631Z,4.30
2022-12-01T10:20:29.063Z,4.10
2022-12-01T10:23:36.217Z,3.70
2022-12-01T10:26:15.518Z,3.90
2022-12-01T10:29:13.096Z,3.90
2022-12-01T10:31:57.968Z,4.20
2022-12-01T10:34:34.782Z,4.40
2022-12-01T10:37:03.543Z,4.00
2022-12-01T10:39:44.264Z,3.90
2022-12-01T10:42:26.913Z,4.20
2022-12-01T10:45:02.981Z,4.20
2022-12-01T10:47:32.202Z,4.10
2022-12-01T10:50:00.446Z,4.30
2022-12-01T10:52:41.853Z,4.10
2022-12-01T10:55:28.571Z,4.20
2022-12-01T10:58:04.729Z,4.00
2022-12-01T11:00:59.063Z,4.30
2022-12-01T11:03:35.955Z,4.10
2022-12-01T11:06:07.781Z,4.20
2022-12-01T11:08:52.083Z,4.30
2022-12-01T11:11:40.642Z,4.30
2022-12-01T11:14:53.760Z,4.20
2022-12-01T11:17:29.827Z,4.30
2022-12-01T11:19:59.007Z,4.30
2022-12-01T11:22:32.031Z,4.30
2022-12-01T11:25:02.675Z,3.70
2022-12-01T11:28:01.944Z,4.00
2022-12-01T11:30:33.104Z,4.50
2022-12-01T11:33:04.540Z,4.20
2022-12-01T11:35:37.852Z,4.30
2022-12-01T11:38:29.184Z,3.90
2022-12-01T11:40:58.177Z,4.20
2022-12-01T11:43:35.496Z,4.00
2022-12-01T11:46:08.157Z,4.20
2022-12-01T11:48:36.841Z,4.10
2022-12-01T11:51:32.122Z,4.20
2022-12-01T11:54:26.262Z,3.80
2022-12-01T11:57:25.556Z,4.20
2022-12-01T11:59:43.381Z,4.20
2022-12-01T12:02:32.507Z,4.20
2022-12-01T12:05:34.559Z,3.90
2022-12-01T12:08:55.413Z,4.00
2022-12-01T12:12:07.702Z,4.00
2022-12-01T12:14:57.097Z,4.70
2022-12-01T12:18:08.695Z,4.30
2022-12-01T12:21:20.658Z,4.10
2022-12-01T12:23:55.698Z,4.10
2022-12-01T12:26:29.931Z,4.20
2022-12-01T12:29:35.032Z,3.90
2022-12-01T12:32:25.656Z,4.80
2022-12-01T12:35:16.435Z,4.20
2022-12-01T12:38:21.780Z,4.00
2022-12-01T12:41:38.977Z,4.30
2022-12-01T12:44:40.768Z,3.90
2022-12-01T12:48:05.709Z,4.40
2022-12-01T12:50:51.958Z,4.30
2022-12-01T12:53:32.092Z,4.60
2022-12-01T12:56:05.908Z,4.00
2022-12-01T12:58:55.404Z,4.20
2022-12-01T13:01:32.436Z,4.20
2022-12-01T13:04:09.777Z,4.30
2022-12-01T13:06:48.499Z,4.40
2022-12-01T13:09:44.502Z,4.40
2022-12-01T13:12:28.391Z,4.50
2022-12-01T13:15:15.589Z,4.40
2022-12-01T13:18:20.831Z,4.30
2022-12-01T13:20:51.166Z,4.30
2022-12-01T13:23:22.150Z,4.80
2022-12-01T13:25:56.280Z,4.70
2022-12-01T13:28:45.516Z,4.90
2022-12-01T13:31:16.352Z,4.60
2022-12-01T13:34:06.047Z,4.70
2022-12-01T13:36:49.742Z,4.90
2022-12-01T13:39:26.552Z,4.80
2022-12-01T13:42:20.282Z,4.90
2022-12-01T13:44:57.369Z,4.50
2022-12-01T13:47:46.819Z,4.80
2022-12-01T13:50:43.147Z,4.60
2022-12-01T13:53:25.269Z,4.40
2022-12-01T13:56:15.216Z,4.80
2022-12-01T13:58:52.035Z,5.10
2022-12-01T14:01:20.181Z,5.00
2022-12-01T14:04:27.162Z,5.00
2022-12-01T14:07:37.099Z,5.90
2022-12-01T14:10:28.831Z,5.30
2022-12-01T14:13:04.961Z,5.10
2022-12-01T14:15:42.873Z,5.90
2022-12-01T14:18:44.497Z,5.90
2022-12-01T14:21:14.720Z,5.40
2022-12-01T14:23:57.341Z,6.00
2022-12-01T14:26:28.592Z,5.70
2022-12-01T14:29:02.824Z,5.10
2022-12-01T14:31:33.689Z,5.60
2022-12-01T14:34:26.637Z,5.70
2022-12-01T14:37:18.434Z,5.40
2022-12-01T14:39:58.671Z,5.60
2022-12-01T14:42:58.750Z,5.00
2022-12-01T14:45:44.607Z,5.30
2022-12-01T14:48:28.118Z,5.10
2022-12-01T14:51:26.412Z,5.70
2022-12-01T14:53:58.498Z,5.40
2022-12-01T14:56:29.535Z,6.00
2022-12-01T14:59:15.644Z,5.10
2022-12-01T15:01:44.318Z,4.90
2022-12-01T15:04:14.206Z,5.30
2022-12-01T15:06:42.896Z,5.40
2022-12-01T15:09:36.839Z,5.30
2022-12-01T15:12:07.909Z,4.80
2022-12-01T15:14:47.283Z,5.10
2022-12-01T15:17:32.620Z,4.90
2022-12-01T15:20:01.719Z,4.80
2022-12-01T15:22:34.050Z,5.20
2022-12-01T15:25:16.157Z,4.90
2022-12-01T15:27:44.986Z,5.10
2022-12-01T15:30:17.197Z,5.50
2022-12-01T15:32:46.143Z,4.60
2022-12-01T15:35:24.176Z,5.20
2022-12-01T15:37:54.074Z,5.00
2022-12-01T15:43:23.365Z,5.20
2022-12-01T15:45:56.735Z,5.30
2022-12-01T15:48:36.670Z,5.40
2022-12-01T15:51:10.644Z,5.20
2022-12-01T15:53:48.338Z,5.50
2022-12-01T15:56:26.067Z,4.90
2022-12-01T15:59:10.180Z,5.40
2022-12-01T16:01:41.944Z,5.30
2022-12-01T16:04:32.450Z,5.30
2022-12-01T16:07:07.177Z,5.20
2022-12-01T16:09:42.817Z,5.00
2022-12-01T16:12:16.928Z,5.70
2022-12-01T16:14:57.222Z,5.40
2022-12-01T16:17:27.155Z,5.10
2022-12-01T16:20:19.345Z,5.20
2022-12-01T16:22:56.755Z,5.30
2022-12-01T16:25:55.606Z,5.20
2022-12-01T16:28:35.997Z,5.60
2022-12-01T16:31:06.050Z,5.40
2022-12-01T16:33:38.930Z,4.90
2022-12-01T16:36:08.185Z,5.70
2022-12-01T16:38:36.982Z,5.40
2022-12-01T16:41:37.811Z,5.30
2022-12-01T16:44:27.572Z,5.20
2022-12-01T16:46:55.348Z,5.20
2022-12-01T16:49:24.071Z,5.10
2022-12-01T16:51:56.868Z,5.20
2022-12-01T16:54:25.943Z,5.20
2022-12-01T16:56:54.614Z,5.30
2022-12-01T16:59:22.830Z,5.30
2022-12-01T17:01:51.264Z,5.40
2022-12-01T17:04:19.334Z,5.30
2022-12-01T17:06:47.419Z,5.20
2022-12-01T17:09:15.482Z,5.10
2022-12-01T17:11:43.640Z,5.20
2022-12-01T17:14:12.027Z,5.40
2022-12-01T17:16:40.192Z,5.20
2022-12-01T17:19:08.178Z,5.10
2022-12-01T17:21:36.035Z,5.10
2022-12-01T17:24:04.618Z,5.60
2022-12-01T17:26:32.698Z,5.20
2022-12-01T17:29:01.548Z,5.30
2022-12-01T17:31:29.708Z,5.40
2022-12-01T17:33:58.040Z,5.00
2022-12-01T17:36:26.012Z,4.90
2022-12-01T17:38:54.340Z,4.90
2022-12-01T17:41:24.918Z,5.00
2022-12-01T17:43:52.992Z,4.80
2022-12-01T17:46:21.970Z,4.80
2022-12-01T17:48:50.570Z,4.40
2022-12-01T17:51:19.185Z,5.10
2022-12-01T17:53:47.603Z,5.00
2022-12-01T17:56:17.562Z,4.90
2022-12-01T17:58:45.610Z,5.10
2022-12-01T18:01:17.702Z,4.70
2022-12-01T18:03:48.581Z,4.90
2022-12-01T18:06:18.569Z,5.00
2022-12-01T18:08:47.413Z,4.80
2022-12-01T18:11:17.629Z,4.80
2022-12-01T18:13:49.921Z,4.50
2022-12-01T18:16:25.436Z,4.70
2022-12-01T18:18:55.364Z,4.80
2022-12-01T18:21:25.060Z,4.90
2022-12-01T18:24:02.385Z,4.70
2022-12-01T18:26:35.562Z,4.40
2022-12-01T18:29:16.206Z,4.70
2022-12-01T18:31:45.409Z,5.00
2022-12-01T18:34:13.411Z,4.70
2022-12-01T18:36:42.104Z,4.80
2022-12-01T18:39:11.750Z,4.80
2022-12-01T18:41:41.724Z,4.80
2022-12-01T18:44:10.716Z,4.90
2022-12-01T18:46:38.998Z,4.70
2022-12-01T18:49:09.230Z,5.00
2022-12-01T18:51:38.971Z,4.80
2022-12-01T18:54:12.095Z,5.00
2022-12-01T18:56:40.167Z,4.50
2022-12-01T18:59:11.692Z,4.30
2022-12-01T19:01:44.263Z,4.70
2022-12-01T19:04:15.328Z,4.80
2022-12-01T19:06:45.738Z,4.70
2022-12-01T19:09:16.181Z,4.70
2022-12-01T19:11:44.899Z,4.90
2022-12-01T19:14:19.775Z,4.80
2022-12-01T19:16:48.774Z,4.40
2022-12-01T19:19:16.901Z,5.40
2022-12-01T19:21:45.795Z,4.80
2022-12-01T19:24:15.647Z,4.30
2022-12-01T19:26:43.685Z,4.80
2022-12-01T19:29:12.157Z,4.90
2022-12-01T19:31:40.648Z,5.00
2022-12-01T19:34:08.917Z,4.80
2022-12-01T19:36:37.205Z,4.70
2022-12-01T19:39:07.669Z,4.50
2022-12-01T19:41:38.966Z,4.60
2022-12-01T19:44:07.657Z,4.80
2022-12-01T19:46:35.862Z,4.60
2022-12-01T19:49:05.434Z,4.80
2022-12-01T19:51:36.977Z,4.20
2022-12-01T19:54:16.643Z,4.60
2022-12-01T19:56:45.810Z,4.50
2022-12-01T19:59:15.067Z,4.70
2022-12-01T20:01:44.273Z,4.60
2022-12-01T20:04:12.298Z,4.80
2022-12-01T20:06:40.370Z,4.60
2022-12-01T20:09:09.666Z,3.90
2022-12-01T20:11:37.742Z,4.40
2022-12-01T20:14:07.770Z,4.20
2022-12-01T20:16:35.994Z,4.30
2022-12-01T20:19:05.807Z,4.40
2022-12-01T20:21:42.635Z,4.20
2022-12-01T20:24:15.184Z,4.30
2022-12-01T20:26:48.126Z,4.20
2022-12-01T20:29:28.726Z,4.30
2022-12-01T20:32:00.045Z,4.30
2022-12-01T20:34:34.508Z,4.60
2022-12-01T20:37:04.630Z,4.30
2022-12-01T20:39:35.489Z,4.50
2022-12-01T20:42:05.946Z,3.90
2022-12-01T20:44:35.166Z,4.50
2022-12-01T20:47:04.267Z,4.80
2022-12-01T20:49:33.009Z,4.80
2022-12-01T20:52:01.269Z,4.50
2022-12-01T20:54:30.219Z,4.50
2022-12-01T20:56:59.863Z,4.20
2022-12-01T20:59:29.375Z,4.10
2022-12-01T21:01:57.369Z,4.50
2022-12-01T21:04:25.580Z,4.60
2022-12-01T21:06:57.869Z,4.40
2022-12-01T21:09:27.089Z,4.50
2022-12-01T21:12:17.968Z,4.70
2022-12-01T21:15:02.291Z,4.50
2022-12-01T21:17:42.139Z,4.80
2022-12-01T21:20:28.197Z,4.80
2022-12-01T21:23:06.091Z,4.70
2022-12-01T21:25:38.900Z,4.80
2022-12-01T21:28:21.083Z,4.50
2022-12-01T21:30:58.929Z,4.70
2022-12-01T21:33:36.983Z,5.10
2022-12-01T21:36:22.810Z,5.20
2022-12-01T21:38:58.736Z,4.70
2022-12-01T21:41:30.812Z,5.00
2022-12-01T21:44:19.961Z,5.80
2022-12-01T21:46:56.435Z,4.80
2022-12-01T21:49:39.507Z,4.70
2022-12-01T21:52:19.690Z,4.70
2022-12-01T21:54:48.345Z,4.60
2022-12-01T21:57:43.934Z,4.50
2022-12-01T22:00:34.307Z,5.10
2022-12-01T22:03:08.948Z,5.30
2022-12-01T22:05:40.976Z,4.70
2022-12-01T22:08:15.009Z,4.60
2022-12-01T22:11:18.847Z,5.10
2022-12-01T22:14:22.225Z,5.10
2022-12-01T22:17:05.617Z,4.50
2022-12-01T22:19:38.595Z,4.90
2022-12-01T22:22:09.679Z,4.70
2022-12-01T22:24:51.801Z,5.10
2022-12-01T22:27:33.065Z,4.50
2022-12-01T22:30:22.646Z,4.50
2022-12-01T22:33:01.367Z,4.50
2022-12-01T22:35:33.524Z,4.70
2022-12-01T22:38:20.419Z,4.70
2022-12-01T22:40:48.398Z,4.20
2022-12-01T22:43:16.306Z,4.30
2022-12-01T22:45:48.544Z,4.40
2022-12-01T22:48:22.554Z,4.20
2022-12-01T22:50:52.104Z,4.50
2022-12-01T22:53:30.422Z,4.50
2022-12-01T22:56:00.927Z,4.50
2022-12-01T22:58:35.222Z,4.20
2022-12-01T23:01:22.190Z,4.40
2022-12-01T23:03:53.102Z,4.30
2022-12-01T23:07:21.552Z,4.20
2022-12-01T23:09:49.838Z,4.40
2022-12-01T23:12:32.043Z,4.30
2022-12-01T23:15:18.754Z,4.40
2022-12-01T23:17:48.975Z,4.30
2022-12-01T23:20:20.319Z,4.70
2022-12-01T23:22:48.646Z,4.30
2022-12-01T23:25:20.131Z,4.40
2022-12-01T23:27:51.210Z,4.30
2022-12-01T23:30:22.086Z,4.60
2022-12-01T23:33:18.674Z,4.20
2022-12-01T23:35:59.134Z,4.20
2022-12-01T23:38:42.962Z,4.10
2022-12-01T23:41:31.041Z,4.40
2022-12-01T23:44:04.718Z,4.70
2022-12-01T23:46:32.872Z,4.00
2022-12-01T23:49:07.469Z,4.40
2022-12-01T23:51:48.906Z,4.30
2022-12-01T23:54:28.036Z,4.30
2022-12-01T23:57:21.850Z,4.20
2022-12-01T23:59:56.296Z,4.40
